TimeMST,TemperatureF,Dew PointF,Humidity,Sea Level PressureIn,VisibilityMPH,Wind Direction,Wind SpeedMPH,Gust SpeedMPH,PrecipitationIn,Events,Conditions,WindDirDegrees,DateUTC
12:56 AM,6.1,1.9,83,30.15,10.0,SSW,3.5,-,N/A,,Clear,210,2011-11-17 07:56:00
1:56 AM,10.0,1.0,67,30.12,10.0,Calm,Calm,-,N/A,,Clear,0,2011-11-17 08:56:00
2:56 AM,8.1,-0.0,70,30.10,10.0,Calm,Calm,-,N/A,,Clear,0,2011-11-17 09:56:00
3:56 AM,8.1,-0.0,70,30.09,10.0,Calm,Calm,-,N/A,,Clear,0,2011-11-17 10:56:00
4:56 AM,7.0,-0.0,73,30.06,10.0,South,5.8,-,N/A,,Clear,180,2011-11-17 11:56:00
5:56 AM,9.0,1.9,73,30.03,10.0,South,8.1,-,N/A,,Clear,180,2011-11-17 12:56:00
6:56 AM,9.0,1.9,73,30.01,10.0,SE,6.9,-,N/A,,Clear,140,2011-11-17 13:56:00
7:56 AM,12.9,7.0,77,29.97,10.0,South,8.1,-,N/A,,Clear,170,2011-11-17 14:56:00
8:56 AM,21.0,10.0,63,29.92,10.0,SSE,12.7,-,N/A,,Partly Cloudy,160,2011-11-17 15:56:00
9:56 AM,25.0,7.0,46,29.87,10.0,SSE,13.8,-,N/A,,Mostly Cloudy,150,2011-11-17 16:56:00
10:56 AM,30.0,5.0,35,29.81,10.0,SSE,19.6,-,N/A,,Overcast,160,2011-11-17 17:56:00
11:56 AM,32.0,3.9,31,29.76,10.0,SSE,18.4,-,N/A,,Overcast,150,2011-11-17 18:56:00
12:56 PM,35.1,3.9,27,29.70,10.0,SSE,16.1,21.9,N/A,,Overcast,150,2011-11-17 19:56:00
1:56 PM,37.0,3.0,24,29.64,10.0,SSE,17.3,28.8,N/A,,Overcast,150,2011-11-17 20:56:00
2:56 PM,37.0,5.0,26,29.63,10.0,SSE,17.3,23.0,N/A,,Overcast,160,2011-11-17 21:56:00
3:56 PM,36.0,5.0,27,29.64,10.0,South,13.8,-,N/A,,Mostly Cloudy,170,2011-11-17 22:56:00
4:56 PM,36.0,7.0,30,29.65,10.0,South,15.0,-,N/A,,Overcast,180,2011-11-17 23:56:00
5:56 PM,36.0,10.9,36,29.60,10.0,South,10.4,-,N/A,,Mostly Cloudy,180,2011-11-18 00:56:00
6:56 PM,36.0,10.9,36,29.61,10.0,SSW,16.1,-,N/A,,Overcast,210,2011-11-18 01:56:00
7:56 PM,41.0,18.0,40,29.60,10.0,WSW,9.2,-,N/A,,Overcast,240,2011-11-18 02:56:00
9:56 PM,41.0,21.0,45,29.58,10.0,West,12.7,-,N/A,,Overcast,270,2011-11-18 04:56:00
10:56 PM,41.0,18.0,40,29.56,10.0,WNW,15.0,-,N/A,,Overcast,290,2011-11-18 05:56:00
11:56 PM,39.9,15.1,36,29.58,10.0,WNW,15.0,-,N/A,,Overcast,290,2011-11-18 06:56:00